sensor_id;sensor_type;location;lat;lon;timestamp;pressure;altitude;pressure_sealevel;temperature;humidity
48027;BME280;50714;49.208;5.364;2023-02-12T00:02:23;101525.28;;;5.60;94.69
48027;BME280;50714;49.208;5.364;2023-02-12T00:12:24;101512.88;;;5.59;94.64
48027;BME280;50714;49.208;5.364;2023-02-12T00:22:24;101518.22;;;5.59;94.96
48027;BME280;50714;49.208;5.364;2023-02-12T00:32:25;101505.81;;;5.58;95.08
48027;BME280;50714;49.208;5.364;2023-02-12T00:42:25;101510.94;;;5.61;94.92
48027;BME280;50714;49.208;5.364;2023-02-12T00:52:25;101513.50;;;5.63;94.79
48027;BME280;50714;49.208;5.364;2023-02-12T01:02:26;101510.19;;;5.59;95.30
48027;BME280;50714;49.208;5.364;2023-02-12T01:12:26;101507.16;;;5.53;95.35
48027;BME280;50714;49.208;5.364;2023-02-12T01:22:26;101505.31;;;5.53;94.94
48027;BME280;50714;49.208;5.364;2023-02-12T01:32:27;101495.59;;;5.52;94.78
48027;BME280;50714;49.208;5.364;2023-02-12T01:42:27;101487.91;;;5.47;95.11
48027;BME280;50714;49.208;5.364;2023-02-12T01:52:31;101481.47;;;5.50;95.19
48027;BME280;50714;49.208;5.364;2023-02-12T02:02:33;101485.47;;;5.56;95.46
48027;BME280;50714;49.208;5.364;2023-02-12T02:12:34;101479.16;;;5.57;95.37
48027;BME280;50714;49.208;5.364;2023-02-12T02:23:24;101477.56;;;5.54;95.95
48027;BME280;50714;49.208;5.364;2023-02-12T02:33:41;101473.31;;;5.52;95.75
48027;BME280;50714;49.208;5.364;2023-02-12T02:43:48;101471.47;;;5.52;95.48
48027;BME280;50714;49.208;5.364;2023-02-12T02:54:00;101460.16;;;5.48;96.52
48027;BME280;50714;49.208;5.364;2023-02-12T03:04:06;101455.91;;;5.46;96.07
48027;BME280;50714;49.208;5.364;2023-02-12T03:14:15;101459.19;;;5.49;96.35
48027;BME280;50714;49.208;5.364;2023-02-12T03:24:32;101454.69;;;5.50;95.81
48027;BME280;50714;49.208;5.364;2023-02-12T03:34:52;101438.63;;;5.50;95.98
48027;BME280;50714;49.208;5.364;2023-02-12T03:45:15;101441.66;;;5.45;96.92
48027;BME280;50714;49.208;5.364;2023-02-12T03:55:18;101434.00;;;5.41;95.72
48027;BME280;50714;49.208;5.364;2023-02-12T04:05:22;101436.09;;;5.37;96.03
48027;BME280;50714;49.208;5.364;2023-02-12T04:15:36;101431.94;;;5.33;96.11
48027;BME280;50714;49.208;5.364;2023-02-12T04:36:01;101429.25;;;5.22;95.87
48027;BME280;50714;49.208;5.364;2023-02-12T04:46:04;101428.06;;;5.15;95.56
48027;BME280;50714;49.208;5.364;2023-02-12T04:56:09;101441.19;;;5.18;96.25
48027;BME280;50714;49.208;5.364;2023-02-12T05:06:10;101438.97;;;5.23;95.45
48027;BME280;50714;49.208;5.364;2023-02-12T05:16:10;101435.34;;;5.24;94.27
48027;BME280;50714;49.208;5.364;2023-02-12T05:26:16;101435.97;;;5.17;93.57
48027;BME280;50714;49.208;5.364;2023-02-12T05:36:20;101434.13;;;5.06;93.30
48027;BME280;50714;49.208;5.364;2023-02-12T05:46:20;101443.00;;;4.95;93.20
48027;BME280;50714;49.208;5.364;2023-02-12T05:56:29;101446.03;;;4.91;94.17
48027;BME280;50714;49.208;5.364;2023-02-12T06:06:31;101452.47;;;4.88;92.80
48027;BME280;50714;49.208;5.364;2023-02-12T06:16:33;101447.34;;;4.85;93.36
48027;BME280;50714;49.208;5.364;2023-02-12T06:26:33;101442.84;;;4.86;93.28
48027;BME280;50714;49.208;5.364;2023-02-12T06:36:36;101445.66;;;4.84;92.21
48027;BME280;50714;49.208;5.364;2023-02-12T06:46:37;101446.97;;;4.78;91.98
48027;BME280;50714;49.208;5.364;2023-02-12T06:56:37;101455.84;;;4.68;92.06
48027;BME280;50714;49.208;5.364;2023-02-12T07:06:38;101459.31;;;4.57;91.78
48027;BME280;50714;49.208;5.364;2023-02-12T07:16:38;101468.81;;;4.61;92.46
48027;BME280;50714;49.208;5.364;2023-02-12T07:26:39;101468.59;;;4.64;92.39
48027;BME280;50714;49.208;5.364;2023-02-12T07:36:39;101459.25;;;4.81;91.96
48027;BME280;50714;49.208;5.364;2023-02-12T07:46:42;101467.78;;;4.97;91.83
48027;BME280;50714;49.208;5.364;2023-02-12T07:56:44;101476.31;;;5.02;92.16
48027;BME280;50714;49.208;5.364;2023-02-12T08:06:47;101470.97;;;5.02;90.50
48027;BME280;50714;49.208;5.364;2023-02-12T08:16:49;101470.50;;;5.08;91.61
48027;BME280;50714;49.208;5.364;2023-02-12T08:26:50;101476.22;;;5.26;91.95
48027;BME280;50714;49.208;5.364;2023-02-12T08:36:52;101479.75;;;5.49;91.42
48027;BME280;50714;49.208;5.364;2023-02-12T08:46:55;101486.81;;;5.83;90.38
48027;BME280;50714;49.208;5.364;2023-02-12T08:56:57;101489.81;;;6.12;89.41
48027;BME280;50714;49.208;5.364;2023-02-12T09:06:58;101491.03;;;6.40;88.66
48027;BME280;50714;49.208;5.364;2023-02-12T09:16:58;101478.50;;;6.62;87.82
48027;BME280;50714;49.208;5.364;2023-02-12T09:26:59;101474.28;;;6.80;86.75
48027;BME280;50714;49.208;5.364;2023-02-12T09:36:59;101477.50;;;6.95;86.44
48027;BME280;50714;49.208;5.364;2023-02-12T09:47:14;101477.88;;;7.11;84.68
48027;BME280;50714;49.208;5.364;2023-02-12T09:57:22;101471.44;;;7.23;84.82
48027;BME280;50714;49.208;5.364;2023-02-12T10:07:39;101475.06;;;7.43;82.99
48027;BME280;50714;49.208;5.364;2023-02-12T10:27:53;101491.19;;;7.73;81.58
48027;BME280;50714;49.208;5.364;2023-02-12T10:38:00;101472.00;;;7.97;80.87
48027;BME280;50714;49.208;5.364;2023-02-12T10:48:10;101456.44;;;8.30;80.20
48027;BME280;50714;49.208;5.364;2023-02-12T10:58:21;101442.63;;;8.63;79.23
48027;BME280;50714;49.208;5.364;2023-02-12T11:18:29;101429.81;;;8.94;78.15
48027;BME280;50714;49.208;5.364;2023-02-12T11:28:34;101412.34;;;8.98;78.02
48027;BME280;50714;49.208;5.364;2023-02-12T11:38:38;101396.59;;;9.03;77.22
48027;BME280;50714;49.208;5.364;2023-02-12T11:48:43;101403.22;;;9.18;77.49
48027;BME280;50714;49.208;5.364;2023-02-12T11:58:47;101382.69;;;9.17;76.71
48027;BME280;50714;49.208;5.364;2023-02-12T12:19:15;101381.38;;;9.49;75.53
48027;BME280;50714;49.208;5.364;2023-02-12T12:29:54;101375.78;;;9.60;75.40
48027;BME280;50714;49.208;5.364;2023-02-12T12:50:17;101385.13;;;9.38;75.25
48027;BME280;50714;49.208;5.364;2023-02-12T13:30:42;101358.09;;;9.48;76.15
48027;BME280;50714;49.208;5.364;2023-02-12T13:40:45;101353.50;;;9.40;76.46
48027;BME280;50714;49.208;5.364;2023-02-12T13:51:03;101354.06;;;9.44;76.73
48027;BME280;50714;49.208;5.364;2023-02-12T14:01:14;101338.78;;;9.52;76.47
48027;BME280;50714;49.208;5.364;2023-02-12T14:11:32;101335.56;;;9.49;76.88
48027;BME280;50714;49.208;5.364;2023-02-12T14:21:33;101328.16;;;9.51;76.95
48027;BME280;50714;49.208;5.364;2023-02-12T14:31:36;101321.09;;;9.50;76.57
48027;BME280;50714;49.208;5.364;2023-02-12T14:41:38;101307.31;;;9.53;76.61
48027;BME280;50714;49.208;5.364;2023-02-12T14:51:48;101304.69;;;9.61;76.23
48027;BME280;50714;49.208;5.364;2023-02-12T15:01:50;101293.69;;;9.54;75.77
48027;BME280;50714;49.208;5.364;2023-02-12T15:12:03;101279.09;;;9.47;75.34
48027;BME280;50714;49.208;5.364;2023-02-12T15:32:25;101274.34;;;8.96;76.10
48027;BME280;50714;49.208;5.364;2023-02-12T15:42:35;101280.91;;;8.84;76.55
48027;BME280;50714;49.208;5.364;2023-02-12T15:52:38;101273.19;;;8.71;77.36
48027;BME280;50714;49.208;5.364;2023-02-12T16:02:40;101276.03;;;8.60;77.34
48027;BME280;50714;49.208;5.364;2023-02-12T16:12:42;101272.97;;;8.45;77.77
48027;BME280;50714;49.208;5.364;2023-02-12T16:22:44;101266.19;;;8.32;78.40
48027;BME280;50714;49.208;5.364;2023-02-12T16:32:46;101269.19;;;8.19;78.81
48027;BME280;50714;49.208;5.364;2023-02-12T16:52:46;101274.31;;;7.93;78.92
48027;BME280;50714;49.208;5.364;2023-02-12T17:02:47;101276.75;;;7.77;79.13
48027;BME280;50714;49.208;5.364;2023-02-12T17:12:49;101288.59;;;7.65;80.06
48027;BME280;50714;49.208;5.364;2023-02-12T17:22:53;101286.63;;;7.47;79.99
48027;BME280;50714;49.208;5.364;2023-02-12T17:32:54;101304.69;;;7.36;80.88
48027;BME280;50714;49.208;5.364;2023-02-12T17:42:54;101306.97;;;7.31;81.33
48027;BME280;50714;49.208;5.364;2023-02-12T17:52:54;101307.06;;;7.19;81.06
48027;BME280;50714;49.208;5.364;2023-02-12T18:02:55;101319.88;;;7.06;81.86
48027;BME280;50714;49.208;5.364;2023-02-12T18:12:56;101314.88;;;6.92;82.15
48027;BME280;50714;49.208;5.364;2023-02-12T18:22:56;101310.63;;;6.90;82.65
48027;BME280;50714;49.208;5.364;2023-02-12T18:32:57;101312.19;;;6.92;83.19
48027;BME280;50714;49.208;5.364;2023-02-12T18:42:57;101317.28;;;6.95;82.90
48027;BME280;50714;49.208;5.364;2023-02-12T18:52:57;101307.09;;;6.89;83.04
48027;BME280;50714;49.208;5.364;2023-02-12T19:02:58;101300.22;;;6.66;82.43
48027;BME280;50714;49.208;5.364;2023-02-12T19:12:58;101290.44;;;6.55;83.26
48027;BME280;50714;49.208;5.364;2023-02-12T19:23:00;101288.75;;;6.33;83.02
48027;BME280;50714;49.208;5.364;2023-02-12T19:33:00;101283.56;;;6.11;83.28
48027;BME280;50714;49.208;5.364;2023-02-12T19:43:01;101283.09;;;6.06;84.24
48027;BME280;50714;49.208;5.364;2023-02-12T19:53:02;101270.06;;;6.01;84.31
48027;BME280;50714;49.208;5.364;2023-02-12T20:03:02;101280.50;;;5.83;83.51
48027;BME280;50714;49.208;5.364;2023-02-12T20:13:02;101271.59;;;5.62;84.22
48027;BME280;50714;49.208;5.364;2023-02-12T20:23:03;101281.81;;;5.57;85.34
48027;BME280;50714;49.208;5.364;2023-02-12T20:33:03;101286.94;;;5.60;85.57
48027;BME280;50714;49.208;5.364;2023-02-12T20:43:03;101292.53;;;5.57;85.85
48027;BME280;50714;49.208;5.364;2023-02-12T20:53:04;101285.97;;;5.50;85.86
48027;BME280;50714;49.208;5.364;2023-02-12T21:03:05;101288.06;;;5.46;85.79
48027;BME280;50714;49.208;5.364;2023-02-12T21:13:05;101283.22;;;5.40;86.07
48027;BME280;50714;49.208;5.364;2023-02-12T21:23:06;101283.84;;;5.33;87.08
48027;BME280;50714;49.208;5.364;2023-02-12T21:33:06;101282.13;;;5.43;86.92
48027;BME280;50714;49.208;5.364;2023-02-12T21:43:06;101276.47;;;5.57;87.82
48027;BME280;50714;49.208;5.364;2023-02-12T21:53:07;101280.78;;;5.69;88.52
48027;BME280;50714;49.208;5.364;2023-02-12T22:03:07;101283.91;;;5.54;87.40
48027;BME280;50714;49.208;5.364;2023-02-12T22:13:07;101290.19;;;5.64;87.69
48027;BME280;50714;49.208;5.364;2023-02-12T22:23:08;101283.34;;;5.71;87.98
48027;BME280;50714;49.208;5.364;2023-02-12T22:33:09;101287.00;;;5.70;87.72
48027;BME280;50714;49.208;5.364;2023-02-12T22:43:09;101294.84;;;5.62;88.45
48027;BME280;50714;49.208;5.364;2023-02-12T22:53:10;101299.59;;;5.58;88.44
48027;BME280;50714;49.208;5.364;2023-02-12T23:03:10;101298.03;;;5.44;87.41
48027;BME280;50714;49.208;5.364;2023-02-12T23:13:10;101314.63;;;5.38;88.88
48027;BME280;50714;49.208;5.364;2023-02-12T23:23:11;101315.81;;;5.45;89.37
48027;BME280;50714;49.208;5.364;2023-02-12T23:33:11;101313.13;;;5.45;89.83
48027;BME280;50714;49.208;5.364;2023-02-12T23:43:11;101300.38;;;5.38;89.95
48027;BME280;50714;49.208;5.364;2023-02-12T23:53:12;101291.28;;;5.29;92.21
